Time;durP1;ratioP1;P1;durP2;ratioP2;P2;SDS_P1;SDS_P2;PMS_P1;PMS_P2;Temp;Humidity;BMP_temperature;BMP_pressure;BME280_temperature;BME280_humidity;BME280_pressure;Samples;Min_cycle;Max_cycle;Signal;HPM_P1;HPM_P2
2021/06/10 19:57:39;;;;;;;7.87;4.65;;;;;;;18.62;82.59;96243.06;4618033;27;20364;-72
2021/06/10 20:00:06;;;;;;;6.25;5.18;;;;;;;18.60;82.97;96246.75;4320364;33;20246;-73
2021/06/10 20:04:13;;;;;;;5.28;4.78;;;;;;;18.84;82.95;96247.28;4412243;32;760136;-74
2021/06/10 20:07:42;;;;;;;7.12;5.87;;;;;;;18.30;87.49;96239.78;4355107;32;756746;-74
2021/06/10 20:10:09;;;;;;;7.35;6.00;;;;;;;18.30;87.49;96239.78;4382657;32;20310;-73
2021/06/10 20:12:34;;;;;;;6.45;5.85;;;;;;;17.58;92.40;96244.06;4382023;32;20258;-75
2021/06/10 20:14:59;;;;;;;14.03;6.73;;;;;;;17.57;93.60;96239.75;4385048;32;20214;-74
2021/06/10 20:17:25;;;;;;;8.60;6.90;;;;;;;17.72;91.86;96242.87;4372289;32;20470;-74
2021/06/10 20:19:50;;;;;;;7.40;6.70;;;;;;;17.77;92.13;96239.94;4370341;32;20247;-75
2021/06/10 20:22:18;;;;;;;6.70;6.00;;;;;;;17.78;92.54;96241.59;4380800;32;20218;-74
2021/06/10 20:24:45;;;;;;;7.00;6.10;;;;;;;17.79;92.80;96238.00;4373231;32;20286;-73
2021/06/10 20:32:20;;;;;;;5.75;5.00;;;;;;;17.85;88.01;96243.56;4370158;32;20246;-74
2021/06/10 20:34:45;;;;;;;4.95;4.37;;;;;;;17.76;87.82;96252.22;4370435;32;20272;-75
2021/06/10 20:37:12;;;;;;;6.80;4.43;;;;;;;17.64;87.58;96248.78;4370180;32;20246;-75
2021/06/10 20:39:38;;;;;;;5.30;4.80;;;;;;;17.41;88.61;96247.25;4376137;32;20254;-74
2021/06/10 20:42:05;;;;;;;6.22;5.62;;;;;;;17.26;90.43;96243.28;4376883;32;20299;-76
2021/06/10 20:44:30;;;;;;;8.15;5.65;;;;;;;17.21;91.94;96238.41;4370131;32;20295;-75
2021/06/10 20:46:56;;;;;;;7.30;5.53;;;;;;;17.22;92.69;96242.69;4369687;32;20232;-76
2021/06/10 20:49:21;;;;;;;6.20;5.60;;;;;;;17.33;92.15;96247.88;4371172;32;20278;-75
2021/06/10 20:51:46;;;;;;;7.83;5.97;;;;;;;17.32;94.09;96242.78;4378611;32;20220;-75
2021/06/10 20:54:12;;;;;;;7.55;5.93;;;;;;;17.31;95.03;96235.84;4370201;32;20573;-76
2021/06/10 20:56:41;;;;;;;6.05;5.50;;;;;;;17.32;95.30;96245.41;4369679;32;20254;-76
2021/06/10 20:59:08;;;;;;;6.07;5.53;;;;;;;17.18;95.86;96244.72;4370207;32;20228;-75
2021/06/10 21:01:34;;;;;;;6.90;5.75;;;;;;;17.10;96.49;96248.94;4369936;32;20609;-76
2021/06/10 21:03:59;;;;;;;7.43;6.00;;;;;;;17.15;95.76;96244.97;4369961;32;20216;-75
2021/06/10 21:06:25;;;;;;;9.05;5.57;;;;;;;17.16;95.54;96241.38;4369210;32;20233;-75
2021/06/10 21:08:50;;;;;;;6.00;5.40;;;;;;;17.14;95.71;96248.56;4369774;32;20241;-76
2021/06/10 21:11:16;;;;;;;7.30;6.10;;;;;;;17.12;95.45;96244.37;4369904;32;20241;-75
2021/06/10 21:13:42;;;;;;;7.30;5.87;;;;;;;17.13;95.83;96253.91;4369959;32;20220;-76
2021/06/10 21:16:09;;;;;;;6.65;5.82;;;;;;;17.15;95.48;96250.22;4369160;32;20220;-75
2021/06/10 21:18:35;;;;;;;6.62;5.93;;;;;;;17.10;95.48;96246.31;4361755;32;20268;-75
2021/06/10 21:21:01;;;;;;;7.70;5.63;;;;;;;16.95;95.78;96252.78;4360311;32;20225;-76
2021/06/10 21:23:27;;;;;;;6.35;5.70;;;;;;;16.90;97.23;96253.16;4359837;32;20221;-75
2021/06/10 21:25:53;;;;;;;8.00;5.95;;;;;;;16.95;96.65;96258.03;4359268;33;20571;-76
2021/06/10 21:28:19;;;;;;;6.40;5.35;;;;;;;16.89;96.72;96251.50;4359715;33;20291;-76
2021/06/10 21:30:44;;;;;;;6.82;5.45;;;;;;;16.79;98.07;96247.94;4359525;33;20209;-76
2021/06/10 21:33:11;;;;;;;5.95;5.35;;;;;;;16.83;97.65;96250.19;4359769;32;20248;-76
2021/06/10 21:35:36;;;;;;;7.00;5.55;;;;;;;16.80;97.65;96245.22;4358028;33;20256;-76
2021/06/10 21:38:02;;;;;;;6.23;5.63;;;;;;;16.81;97.51;96251.28;4359522;33;20217;-75
2021/06/10 21:40:28;;;;;;;6.33;5.73;;;;;;;16.79;97.33;96245.31;4358468;33;20283;-75
2021/06/10 21:42:54;;;;;;;8.10;5.70;;;;;;;16.73;97.61;96245.81;4359534;33;20240;-76
2021/06/10 21:45:19;;;;;;;7.63;5.57;;;;;;;16.54;99.29;96255.09;4358861;32;20708;-76
2021/06/10 21:47:45;;;;;;;6.30;5.50;;;;;;;16.25;100.00;96248.72;4359484;32;20283;-76
2021/06/10 21:50:13;;;;;;;6.13;5.10;;;;;;;16.10;100.00;96254.19;4359492;32;20267;-76
2021/06/10 21:52:39;;;;;;;6.12;5.60;;;;;;;16.26;100.00;96245.97;4359143;32;20292;-76
2021/06/10 21:55:05;;;;;;;7.20;5.70;;;;;;;16.32;100.00;96239.44;4359483;32;20294;-75
2021/06/10 21:57:31;;;;;;;5.70;4.60;;;;;;;16.31;100.00;96246.44;4359244;33;20257;-75
2021/06/10 21:59:57;;;;;;;5.87;4.43;;;;;;;16.27;96.15;96237.16;4359318;33;20315;-75
2021/06/10 22:02:23;;;;;;;5.53;4.75;;;;;;;16.23;94.64;96245.38;4359302;33;20681;-75
2021/06/10 22:04:49;;;;;;;6.35;5.25;;;;;;;16.16;95.45;96240.62;4357816;33;20225;-75
2021/06/10 22:07:16;;;;;;;5.93;5.37;;;;;;;16.20;95.55;96241.22;4358259;33;20347;-75
2021/06/10 22:09:42;;;;;;;6.10;5.50;;;;;;;16.25;97.24;96238.25;4360979;32;20286;-75
2021/06/10 22:12:08;;;;;;;10.67;5.77;;;;;;;16.27;97.99;96236.34;4363587;33;20221;-76
2021/06/10 22:14:34;;;;;;;6.30;5.53;;;;;;;16.27;98.27;96236.34;4363723;33;20213;-76
2021/06/10 22:17:01;;;;;;;5.87;5.17;;;;;;;16.29;98.01;96234.44;4361725;32;20221;-76
2021/06/10 22:19:26;;;;;;;9.35;5.95;;;;;;;16.30;97.86;96234.31;4359791;32;20237;-75
2021/06/10 22:21:52;;;;;;;6.93;5.43;;;;;;;16.24;98.32;96236.56;4359230;33;20315;-76
2021/06/10 22:24:20;;;;;;;7.90;5.60;;;;;;;16.25;97.82;96236.47;4359158;33;20600;-76
2021/06/10 22:26:45;;;;;;;6.55;5.50;;;;;;;16.18;97.78;96233.50;4358055;33;20310;-76
2021/06/10 22:29:10;;;;;;;5.87;5.27;;;;;;;16.13;98.21;96232.19;4358596;32;20636;-74
2021/06/10 22:31:37;;;;;;;6.35;5.30;;;;;;;16.11;98.46;96232.31;4357472;33;20237;-76
2021/06/10 22:34:03;;;;;;;9.50;6.00;;;;;;;15.91;99.88;96233.84;4358734;32;20270;-75
2021/06/10 22:36:28;;;;;;;6.80;5.40;;;;;;;15.88;100.00;96231.47;4358620;32;20251;-76
2021/06/10 22:38:54;;;;;;;5.67;5.13;;;;;;;15.91;99.75;96233.03;4358983;32;20233;-75
2021/06/10 22:41:21;;;;;;;12.85;5.40;;;;;;;15.87;98.42;96234.19;4358210;32;20225;-75
2021/06/10 22:43:47;;;;;;;5.05;4.55;;;;;;;15.85;95.69;96239.53;4358605;32;20279;-76
2021/06/10 22:46:18;;;;;;;5.47;4.97;;;;;;;15.70;94.53;96236.31;4358171;33;20307;-76
2021/06/10 22:48:45;;;;;;;10.50;5.10;;;;;;;15.65;96.45;96241.06;4357393;33;20565;-76
2021/06/10 22:51:11;;;;;;;4.82;4.32;;;;;;;15.70;96.12;96238.94;4357590;32;20213;-76
2021/06/10 22:53:39;;;;;;;5.78;4.47;;;;;;;15.92;90.46;96239.91;4358465;33;20212;-75
2021/06/10 22:56:06;;;;;;;5.75;5.07;;;;;;;15.58;92.00;96237.22;4357841;33;20280;-75
2021/06/10 22:58:33;;;;;;;5.73;4.50;;;;;;;15.31;95.91;96242.72;4358324;32;20702;-76
2021/06/10 23:00:59;;;;;;;6.20;4.30;;;;;;;15.24;99.01;96236.31;4358522;32;20295;-75
2021/06/10 23:03:25;;;;;;;4.93;4.40;;;;;;;15.30;97.20;96235.00;4358333;33;20626;-75
2021/06/10 23:05:51;;;;;;;7.32;5.28;;;;;;;15.29;97.20;96241.19;4357895;33;20248;-76
2021/06/10 23:08:17;;;;;;;7.07;5.68;;;;;;;15.46;92.16;96243.34;4369245;32;20227;-76
2021/06/10 23:10:43;;;;;;;6.55;5.57;;;;;;;15.42;91.53;96242.75;4360938;32;20217;-75
2021/06/10 23:13:08;;;;;;;6.15;5.55;;;;;;;15.00;96.56;96238.91;4370221;32;20246;-75
2021/06/10 23:15:35;;;;;;;5.90;5.13;;;;;;;14.89;99.03;96242.31;4358869;32;20231;-75
2021/06/10 23:18:02;;;;;;;6.10;5.50;;;;;;;14.81;100.00;96243.81;4372904;32;20543;-76
2021/06/10 23:20:28;;;;;;;9.32;6.60;;;;;;;14.81;100.00;96244.63;4373130;32;20232;-74
2021/06/10 23:22:54;;;;;;;7.60;6.57;;;;;;;14.68;100.00;96242.09;4373290;32;20268;-75
2021/06/10 23:25:19;;;;;;;8.30;6.97;;;;;;;14.78;100.00;96239.62;4368960;32;20213;-76
2021/06/10 23:27:45;;;;;;;9.60;6.65;;;;;;;14.69;100.00;96232.50;4357891;33;20268;-75
2021/06/10 23:30:11;;;;;;;6.95;6.25;;;;;;;14.68;100.00;96229.06;4358040;33;20655;-74
2021/06/10 23:32:38;;;;;;;6.70;5.90;;;;;;;14.88;100.00;96229.38;4356817;33;20252;-75
2021/06/10 23:35:05;;;;;;;6.97;6.28;;;;;;;14.93;100.00;96233.31;4358336;32;20561;-72
2021/06/10 23:37:30;;;;;;;35.78;7.72;;;;;;;14.89;100.00;96236.25;4357621;32;20506;-75
2021/06/10 23:39:55;;;;;;;37.57;7.73;;;;;;;14.46;100.00;96228.87;4369614;32;20299;-76
2021/06/10 23:42:21;;;;;;;19.27;6.93;;;;;;;14.27;100.00;96224.94;4362690;32;20239;-75
2021/06/10 23:44:47;;;;;;;30.58;7.72;;;;;;;14.07;100.00;96222.91;4357800;33;20632;-74
2021/06/10 23:47:12;;;;;;;8.63;6.78;;;;;;;14.06;100.00;96223.88;4357610;32;20229;-75
2021/06/10 23:49:39;;;;;;;10.20;6.85;;;;;;;14.15;100.00;96232.81;4356597;33;20225;-76
2021/06/10 23:52:05;;;;;;;7.30;6.60;;;;;;;14.23;100.00;96228.72;4357840;33;20220;-76
2021/06/10 23:54:30;;;;;;;9.95;6.20;;;;;;;14.33;100.00;96228.91;4357700;33;20250;-75
2021/06/10 23:56:55;;;;;;;7.37;6.23;;;;;;;14.32;100.00;96231.62;4357319;32;20697;-75
2021/06/10 23:59:21;;;;;;;11.40;6.03;;;;;;;14.46;100.00;96223.66;4357662;33;20387;-76
